METAR / TAF

Die METAR- und TAF-Liste ist aus technischen Gründen (Verfügbarkeit, Update-Zyklen) nicht für ein Meteo-Briefing gedacht. Benutzen Sie stattdessen skybriefing der Skyguide  oder das TAMSI (MeteoSchweiz-eigene Meteo Selfbriefing-Plattform für Firmen aus der Aviatik; Anfragen über das

Kontaktformular

METAR Switzerland

METAR     LSZH 220050Z 26003KT 9999 FEW025 BKN060 12/08 Q1024 NOSIG=
METAR     LSZH 220120Z 18003KT 9999 FEW025 BKN060 11/08 Q1024 NOSIG=
METAR     LSGG 220050Z AUTO 28003KT CAVOK 11/07 Q1023 NOSIG=
METAR     LSGG 220120Z AUTO 30003KT CAVOK 11/07 Q1023 NOSIG=
METAR     LFSB 220100Z AUTO VRB02KT 9999 FEW030 SCT150 BKN220 11/09
               Q1024 NOSIG=
METAR     LSZB 220050Z AUTO VRB01KT 9999 OVC043 12/06 Q1024=
METAR     LSZB 220120Z AUTO VRB02KT 9999 BKN048 13/05 Q1024=
METAR     LSZA 220050Z AUTO VRB01KT 9999 NCD 18/17 Q1015=
METAR     LSZA 220120Z AUTO VRB01KT CAVOK 18/17 Q1015=
METAR     LSZG 220050Z AUTO 28001KT 9999 SCT050 12/06 Q1024=
METAR     LSZG 220120Z AUTO 00000KT 9999 BKN050 11/06 Q1024=
METAR     LSZR 220050Z AUTO 25006KT 210V290 9999 OVC060 13/07 Q1024=
METAR     LSZR 220120Z AUTO 25005KT 210V280 9999 OVC050 13/08 Q1024=
METAR     LSGS 220050Z AUTO 27012KT CAVOK 16/11 Q1021=
METAR     LSGS 220120Z AUTO 28008G18KT 220V340 CAVOK 16/10 Q1021=
METAR     LSGC 220050Z AUTO 27002KT 5000 BR FEW001 SCT006 06/06
               Q1025=
METAR     LSGC 220120Z AUTO VRB02KT 9999 BKN006 07/06 Q1024=
METAR     LSZC 220050Z AUTO VRB03KT 9999 BKN036 SCT042 11/10 Q1025=
METAR     LSZC 220120Z AUTO VRB03KT 9999 OVC042 11/09 Q1025=
METAR RRA LSZL 220050Z AUTO 36001KT 9999NDV SCT058 SCT120 20/17
               Q1015 RMK=
METAR     LSZL 220120Z NIL=
METAR     LSZS 220050Z AUTO 18004KT 110V260 9999 FEW080 12/09 Q1021=
METAR     LSZS 220120Z AUTO VRB02KT 9999 NCD 10/08 Q1021=
METAR RRA LSMA 220050Z AUTO VRB03KT 9999NDV FEW019 BKN034 OVC039
               12/07 Q1024 RMK=
METAR     LSMA 220120Z AUTO VRB02KT 9999NDV OVC037 12/09 Q1024 RMK=
METAR RRA LSMD 220050Z AUTO /////KT ////NDV // ////// ///// Q////
               RMK MIS=
METAR     LSMD 220120Z AUTO /////KT ////NDV // ////// ///// Q////
               RMK MIS=
METAR RRA LSME 220050Z AUTO VRB01KT 9999NDV FEW046 OVC054 12/09
               Q1025 RMK=
METAR     LSME 220120Z AUTO VRB01KT 9999NDV OVC056 12/10 Q1025 RMK=
METAR RRA LSMM 220050Z AUTO 03017KT 360V060 9999NDV SCT016 OVC022
               11/08 Q1023 RMK=
METAR     LSMM 220120Z NIL=
METAR RRA LSMP 220050Z AUTO VRB01KT 9999NDV NCD 12/07 Q1024 RMK=
METAR     LSMP 220120Z AUTO 30003KT 250V030 9999NDV NCD 12/07 Q1024
               RMK=
METAR     LSMS 220050Z AUTO 27012KT CAVOK 16/11 Q1021=
METAR     LSMS 220120Z AUTO 28008G18KT 220V340 CAVOK 16/10 Q1021=
Updated on Saturday, 22 September 2018, 03:29

TAF Switzerland

TAF     LSZH 212325Z 2200/2306 VRB03KT 9999 FEW020 BKN060
             TX19/2214Z TN09/2204Z TN12/2304Z BECMG 2208/2211
             CAVOK PROB40 TEMPO 2212/2216 28010KT BECMG 2220/2223
             9999 BKN070=
TAF RRA LSGG 212325Z 2200/2306 22004KT CAVOK TX22/2215Z TN12/2205Z
             TN11/2305Z BECMG 2210/2212 04010KT BECMG 2217/2219
             VRB03KT=
TAF     LFSB 212300Z 2200/2224 27006KT CAVOK TEMPO 2203/2212
             VRB03KT=
TAF     LSZL 211725Z 2118/2203 VRB03KT 9999 BKN070 PROB40 TEMPO
             2118/2124 4500 SHRA SCT040TCU BKN050=
TAF AAB LSMA 212155Z 2121/2223 05005KT 9999 FEW020 BKN040 TEMPO
             2121/2205 05015G25KT PROB40 TEMPO 2121/2203 SHRA
             BECMG 2207/2210 CAVOK BECMG 2217/2221 9999 BKN080=
TAF     LSMA 211625Z 2117/2223 19010KT 9999 FEW040 BKN100 TEMPO
             2117/2123 04015G30KT SHRA BKN030 BECMG 2211/2213
             03007KT CAVOK BECMG 2217/2221 9999 BKN080=
TAF     LSMD 211625Z 2117/2223 29007KT 9999 FEW035 SCT080 BKN100
             TEMPO 2117/2121 30015G27KT SHRA BKN030 BECMG
             2211/2213 CAVOK BECMG 2217/2220 9999 BKN080=
TAF     LSME 211625Z 2117/2223 29006KT 9999 FEW040 SCT080 BKN100
             TEMPO 2117/2121 30015G25KT SHRA BKN030 BECMG
             2211/2213 28007KT CAVOK BECMG 2217/2221 9999 BKN080=
TAF AAA LSMM 212113Z 2121/2223 24005KT 9999 FEW020 BKN040 TEMPO
             2121/2203 03012KT PROB40 TEMPO 2121/2202 SHRA PROB40
             TEMPO 2204/2207 2500 BCFG BECMG 2209/2212 CAVOK BECMG
             2217/2221 9999 BKN080=
TAF     LSMM 211625Z 2117/2223 24010KT 9999 FEW030 BKN060 TEMPO
             2117/2201 27015G25KT SHRA BKN025 BECMG 2209/2212
             CAVOK BECMG 2217/2221 9999 BKN080=
TAF     LSMP 211625Z 2117/2223 22010KT 9999 FEW045 BKN100 PROB40
             TEMPO 2117/2121 SHRA BKN040 BECMG 2121/2123 VRB03KT
             BECMG 2212/2214 04010KT=
Updated on Saturday, 22 September 2018, 03:03